createdAt,value
2018-06-30T00:00:39.529Z,94.20
2018-06-30T00:03:08.055Z,94.10
2018-06-30T00:05:36.542Z,94.50
2018-06-30T00:08:05.082Z,94.40
2018-06-30T00:10:33.699Z,94.60
2018-06-30T00:13:02.363Z,94.60
2018-06-30T00:15:30.911Z,94.50
2018-06-30T00:17:59.360Z,94.60
2018-06-30T00:20:27.814Z,94.60
2018-06-30T00:22:56.491Z,94.60
2018-06-30T00:25:24.908Z,94.50
2018-06-30T00:27:55.391Z,94.70
2018-06-30T00:30:24.909Z,94.80
2018-06-30T00:32:53.731Z,94.90
2018-06-30T00:35:22.214Z,94.90
2018-06-30T00:37:50.699Z,94.90
2018-06-30T00:40:19.196Z,95.00
2018-06-30T00:42:47.635Z,95.10
2018-06-30T00:45:16.065Z,95.20
2018-06-30T00:47:44.572Z,95.40
2018-06-30T00:50:13.071Z,95.40
2018-06-30T00:52:41.518Z,95.30
2018-06-30T00:55:10.076Z,95.50
2018-06-30T00:57:38.519Z,95.50
2018-06-30T01:00:07.185Z,95.70
2018-06-30T01:02:35.628Z,96.10
2018-06-30T01:05:04.206Z,96.00
2018-06-30T01:07:32.672Z,96.00
2018-06-30T01:10:01.179Z,96.20
2018-06-30T01:12:29.683Z,96.00
2018-06-30T01:14:58.124Z,96.40
2018-06-30T01:17:26.570Z,96.30
2018-06-30T01:19:55.007Z,96.50
2018-06-30T01:22:23.462Z,96.70
2018-06-30T01:24:51.934Z,96.70
2018-06-30T01:27:20.404Z,96.80
2018-06-30T01:29:48.890Z,97.00
2018-06-30T01:32:17.365Z,97.00
2018-06-30T01:34:45.833Z,96.90
2018-06-30T01:37:14.323Z,97.10
2018-06-30T01:39:42.822Z,97.20
2018-06-30T01:42:11.350Z,97.40
2018-06-30T01:44:39.874Z,97.50
2018-06-30T01:47:08.360Z,97.60
2018-06-30T01:49:36.976Z,97.50
2018-06-30T01:52:05.572Z,97.80
2018-06-30T01:54:34.013Z,98.20
2018-06-30T01:57:02.533Z,98.50
2018-06-30T01:59:30.990Z,98.30
2018-06-30T02:01:59.426Z,98.40
2018-06-30T02:04:27.849Z,98.60
2018-06-30T02:06:56.294Z,98.60
2018-06-30T02:09:24.734Z,98.60
2018-06-30T02:11:53.216Z,98.90
2018-06-30T02:14:21.730Z,98.80
2018-06-30T02:16:50.179Z,99.00
2018-06-30T02:19:18.619Z,99.00
2018-06-30T02:21:47.102Z,99.20
2018-06-30T02:24:15.548Z,99.40
2018-06-30T02:26:44.022Z,99.30
2018-06-30T02:29:12.484Z,99.60
2018-06-30T02:31:40.959Z,99.70
2018-06-30T02:34:09.437Z,99.70
2018-06-30T02:36:37.872Z,99.90
2018-06-30T02:39:07.800Z,99.90
2018-06-30T02:41:36.202Z,99.90
2018-06-30T02:46:32.968Z,99.90
2018-06-30T02:49:01.506Z,99.90
2018-06-30T02:51:30.144Z,99.90
2018-06-30T02:53:58.669Z,99.90
2018-06-30T02:56:27.129Z,99.90
2018-06-30T02:58:55.592Z,99.90
2018-06-30T03:01:24.105Z,99.90
2018-06-30T03:03:52.550Z,99.90
2018-06-30T03:06:21.055Z,99.90
2018-06-30T03:08:49.486Z,99.90
2018-06-30T03:11:17.946Z,99.90
2018-06-30T03:13:46.384Z,99.90
2018-06-30T03:16:17.658Z,99.90
2018-06-30T03:18:47.323Z,99.90
2018-06-30T03:21:15.818Z,99.90
2018-06-30T03:23:44.283Z,99.90
2018-06-30T03:26:12.990Z,99.90
2018-06-30T03:28:41.418Z,99.90
2018-06-30T03:31:09.872Z,99.90
2018-06-30T03:33:38.288Z,99.90
2018-06-30T03:36:06.710Z,99.90
2018-06-30T03:38:35.217Z,99.90
2018-06-30T03:41:03.766Z,99.90
2018-06-30T03:43:32.162Z,99.90
2018-06-30T03:46:00.633Z,99.90
2018-06-30T03:48:29.066Z,99.90
2018-06-30T03:50:57.482Z,99.90
2018-06-30T03:53:25.938Z,99.90
2018-06-30T03:55:54.452Z,99.90
2018-06-30T03:58:22.896Z,99.90
2018-06-30T04:00:51.476Z,99.90
2018-06-30T04:03:19.954Z,99.90
2018-06-30T04:05:48.387Z,99.90
2018-06-30T04:08:16.875Z,99.90
2018-06-30T04:10:45.350Z,99.90
2018-06-30T04:13:13.840Z,99.90
2018-06-30T04:15:42.258Z,99.90
2018-06-30T04:18:10.748Z,99.90
2018-06-30T04:20:39.178Z,99.90
2018-06-30T04:23:07.668Z,99.90
2018-06-30T04:25:36.203Z,99.90
2018-06-30T04:28:04.676Z,99.90
2018-06-30T04:30:33.162Z,99.90
2018-06-30T04:33:01.647Z,99.90
2018-06-30T04:35:30.125Z,99.90
2018-06-30T04:37:58.598Z,99.90
2018-06-30T04:40:27.070Z,99.90
2018-06-30T04:42:55.582Z,99.90
2018-06-30T04:45:24.018Z,99.90
2018-06-30T04:47:52.518Z,99.90
2018-06-30T04:50:20.977Z,99.90
2018-06-30T04:52:49.440Z,99.90
2018-06-30T04:55:17.924Z,99.90
2018-06-30T04:57:46.511Z,99.90
2018-06-30T05:00:14.990Z,99.90
2018-06-30T05:02:43.484Z,99.90
2018-06-30T05:05:11.980Z,99.90
2018-06-30T05:07:40.475Z,99.90
2018-06-30T05:10:08.992Z,99.90
2018-06-30T05:12:37.412Z,99.90
2018-06-30T05:15:06.182Z,99.90
2018-06-30T05:17:34.659Z,99.90
2018-06-30T05:20:03.248Z,99.90
2018-06-30T05:22:31.704Z,99.90
2018-06-30T05:25:00.434Z,99.90
2018-06-30T05:29:57.038Z,99.90
2018-06-30T05:32:25.552Z,99.90
2018-06-30T05:34:54.006Z,99.90
2018-06-30T05:37:22.514Z,99.90
2018-06-30T05:39:51.011Z,99.90
2018-06-30T05:42:19.508Z,99.90
2018-06-30T05:44:48.155Z,99.90
2018-06-30T05:47:16.642Z,99.90
2018-06-30T05:49:45.148Z,99.90
2018-06-30T05:52:13.614Z,99.90
2018-06-30T05:54:42.082Z,99.90
2018-06-30T05:57:10.536Z,99.90
2018-06-30T05:59:38.964Z,99.70
2018-06-30T06:02:07.489Z,99.60
2018-06-30T06:04:35.985Z,99.60
2018-06-30T06:07:04.745Z,99.90
2018-06-30T06:09:33.178Z,99.20
2018-06-30T06:12:01.604Z,99.20
2018-06-30T06:14:30.064Z,98.60
2018-06-30T06:16:58.504Z,98.50
2018-06-30T06:19:26.974Z,98.40
2018-06-30T06:21:55.432Z,99.10
2018-06-30T06:24:23.948Z,98.70
2018-06-30T06:26:52.419Z,98.80
2018-06-30T06:29:20.890Z,98.80
2018-06-30T06:31:49.510Z,97.60
2018-06-30T06:53:44.732Z,96.70
2018-06-30T06:56:13.288Z,97.30
2018-06-30T06:58:41.756Z,92.70
2018-06-30T07:01:10.272Z,92.70
2018-06-30T07:03:38.750Z,91.40
2018-06-30T07:06:07.221Z,90.20
2018-06-30T07:08:35.694Z,90.60
2018-06-30T07:11:05.465Z,88.90
2018-06-30T07:13:33.976Z,90.10
2018-06-30T07:16:02.496Z,90.10
2018-06-30T07:18:30.968Z,90.50
2018-06-30T07:20:59.383Z,90.30
2018-06-30T07:25:56.164Z,90.30
2018-06-30T07:28:24.710Z,88.70
2018-06-30T07:30:53.203Z,88.60
2018-06-30T07:33:21.672Z,88.20
2018-06-30T07:35:50.125Z,87.30
2018-06-30T07:38:18.611Z,88.10
2018-06-30T07:40:47.083Z,84.60
2018-06-30T07:43:15.595Z,85.70
2018-06-30T07:45:44.011Z,86.80
2018-06-30T07:48:12.485Z,86.00
2018-06-30T07:50:40.968Z,84.30
2018-06-30T07:53:09.546Z,83.30
2018-06-30T07:55:38.033Z,82.50
2018-06-30T07:58:06.471Z,82.50
2018-06-30T08:00:35.142Z,83.20
2018-06-30T08:03:03.774Z,82.10
2018-06-30T08:05:32.268Z,83.40
2018-06-30T08:08:00.724Z,81.40
2018-06-30T08:10:29.170Z,83.90
2018-06-30T08:12:57.862Z,85.00
2018-06-30T08:15:26.342Z,82.60
2018-06-30T08:17:54.952Z,83.90
2018-06-30T08:20:23.456Z,79.90
2018-06-30T08:22:51.906Z,80.30
2018-06-30T08:25:20.532Z,78.30
2018-06-30T08:27:49.410Z,80.00
2018-06-30T08:30:17.954Z,80.30
2018-06-30T08:32:46.406Z,80.10
2018-06-30T08:35:14.954Z,77.20
2018-06-30T08:37:43.422Z,78.10
2018-06-30T08:40:11.896Z,77.40
2018-06-30T08:42:40.394Z,79.20
2018-06-30T08:45:08.905Z,79.00
2018-06-30T08:47:37.386Z,77.20
2018-06-30T08:50:05.954Z,77.50
2018-06-30T08:52:34.471Z,76.80
2018-06-30T08:55:02.945Z,77.00
2018-06-30T08:57:31.414Z,75.90
2018-06-30T09:00:00.632Z,76.70
2018-06-30T09:02:29.108Z,77.60
2018-06-30T09:04:57.566Z,77.80
2018-06-30T09:07:26.001Z,77.20
2018-06-30T09:09:54.472Z,77.40
2018-06-30T09:12:22.914Z,77.50
2018-06-30T09:14:51.398Z,77.70
2018-06-30T09:17:19.954Z,78.20
2018-06-30T09:19:48.384Z,78.10
2018-06-30T09:22:16.809Z,75.50
2018-06-30T09:24:45.812Z,78.60
2018-06-30T09:27:14.291Z,74.50
2018-06-30T09:29:42.799Z,76.70
2018-06-30T09:32:11.262Z,76.80
2018-06-30T09:34:39.722Z,76.80
2018-06-30T09:37:08.210Z,76.30
2018-06-30T09:39:36.622Z,78.60
2018-06-30T09:42:05.065Z,75.00
2018-06-30T09:44:33.748Z,73.60
2018-06-30T09:47:02.046Z,75.80
2018-06-30T09:49:30.539Z,75.10
2018-06-30T09:51:59.029Z,75.40
2018-06-30T09:54:27.484Z,74.50
2018-06-30T09:56:55.992Z,72.50
2018-06-30T09:59:24.494Z,73.60
2018-06-30T10:01:52.941Z,73.60
2018-06-30T10:04:21.382Z,70.70
2018-06-30T10:06:49.886Z,73.00
2018-06-30T10:09:18.302Z,73.00
2018-06-30T10:14:14.949Z,73.20
2018-06-30T10:16:43.440Z,75.10
2018-06-30T10:19:11.926Z,72.30
2018-06-30T10:21:40.416Z,71.50
2018-06-30T10:24:08.928Z,69.70
2018-06-30T10:26:37.498Z,72.60
2018-06-30T10:29:06.180Z,70.80
2018-06-30T10:31:34.673Z,69.00
2018-06-30T10:34:03.446Z,67.80
2018-06-30T10:36:31.987Z,72.50
2018-06-30T10:39:00.451Z,70.50
2018-06-30T10:41:28.937Z,70.40
2018-06-30T10:43:57.362Z,70.30
2018-06-30T10:46:25.841Z,71.40
2018-06-30T10:48:54.285Z,73.10
2018-06-30T10:51:22.764Z,71.60
2018-06-30T10:53:51.222Z,72.90
2018-06-30T10:56:19.681Z,72.50
2018-06-30T10:58:48.164Z,70.70
2018-06-30T11:01:16.648Z,72.40
2018-06-30T11:03:45.110Z,72.10
2018-06-30T11:06:13.568Z,72.80
2018-06-30T11:08:42.067Z,71.50
2018-06-30T11:11:10.500Z,72.30
2018-06-30T11:13:39.050Z,70.60
2018-06-30T11:16:07.506Z,71.20
2018-06-30T11:18:37.322Z,70.20
2018-06-30T11:21:05.862Z,70.60
2018-06-30T11:23:34.475Z,69.80
2018-06-30T11:26:02.930Z,69.90
2018-06-30T11:28:33.686Z,70.50
2018-06-30T11:31:02.126Z,71.00
2018-06-30T11:33:30.598Z,71.30
2018-06-30T11:35:59.055Z,68.50
2018-06-30T11:38:27.545Z,67.80
2018-06-30T11:40:56.227Z,68.60
2018-06-30T11:43:24.445Z,68.40
2018-06-30T11:45:52.913Z,68.10
2018-06-30T11:48:21.419Z,69.00
2018-06-30T11:53:18.045Z,66.30
2018-06-30T11:55:46.954Z,67.10
2018-06-30T11:58:16.263Z,68.50
2018-06-30T12:00:45.407Z,66.50
2018-06-30T12:03:14.208Z,65.60
2018-06-30T12:05:42.855Z,68.00
2018-06-30T12:08:11.351Z,64.40
2018-06-30T12:10:39.807Z,67.40
2018-06-30T12:13:08.606Z,65.00
2018-06-30T12:15:37.267Z,64.20
2018-06-30T12:18:05.737Z,64.00
2018-06-30T12:20:34.192Z,64.20
2018-06-30T12:23:02.720Z,63.20
2018-06-30T12:25:31.907Z,62.50
2018-06-30T12:32:57.722Z,60.70
2018-06-30T12:35:26.140Z,62.00
2018-06-30T12:37:54.679Z,63.50
2018-06-30T12:40:23.148Z,60.50
2018-06-30T12:42:51.591Z,62.60
2018-06-30T12:45:20.040Z,62.60
2018-06-30T12:47:48.514Z,60.90
2018-06-30T12:50:16.966Z,59.40
2018-06-30T12:52:45.486Z,59.60
2018-06-30T12:55:14.340Z,59.30
2018-06-30T12:57:43.656Z,58.60
2018-06-30T13:00:12.162Z,58.30
2018-06-30T13:02:40.700Z,57.90
2018-06-30T13:05:09.146Z,55.60
2018-06-30T13:07:37.590Z,57.70
2018-06-30T13:10:06.074Z,57.20
2018-06-30T13:12:34.536Z,54.70
2018-06-30T13:15:03.065Z,56.40
2018-06-30T13:17:31.530Z,58.30
2018-06-30T13:20:00.828Z,55.70
2018-06-30T13:22:29.347Z,53.50
2018-06-30T13:24:57.803Z,53.40
2018-06-30T13:27:26.369Z,54.00
2018-06-30T13:29:54.842Z,54.70
2018-06-30T13:32:23.333Z,53.20
2018-06-30T13:34:51.842Z,55.60
2018-06-30T13:37:20.336Z,56.60
2018-06-30T13:39:48.954Z,55.20
2018-06-30T13:42:17.464Z,56.00
2018-06-30T13:44:46.041Z,55.00
2018-06-30T13:47:14.424Z,56.00
2018-06-30T13:49:42.865Z,54.50
2018-06-30T13:52:11.377Z,53.60
2018-06-30T13:54:39.839Z,52.20
2018-06-30T13:57:08.327Z,49.70
2018-06-30T13:59:36.789Z,51.90
2018-06-30T14:02:05.667Z,51.10
2018-06-30T14:04:34.132Z,47.50
2018-06-30T14:07:02.660Z,45.70
2018-06-30T14:09:31.104Z,46.60
2018-06-30T14:11:59.559Z,48.80
2018-06-30T14:14:28.018Z,49.10
2018-06-30T14:16:56.548Z,49.00
2018-06-30T14:19:24.987Z,47.60
2018-06-30T14:21:53.430Z,46.30
2018-06-30T14:24:21.889Z,47.50
2018-06-30T14:26:50.329Z,46.50
2018-06-30T14:31:46.963Z,44.60
2018-06-30T14:34:15.401Z,46.20
2018-06-30T14:36:43.889Z,45.30
2018-06-30T14:39:13.157Z,44.80
2018-06-30T14:41:41.606Z,44.70
2018-06-30T14:44:10.149Z,45.00
2018-06-30T14:46:38.629Z,44.00
2018-06-30T14:49:07.165Z,44.10
2018-06-30T14:51:36.123Z,43.50
2018-06-30T14:54:04.677Z,43.10
2018-06-30T14:56:33.168Z,43.00
2018-06-30T14:59:01.611Z,42.60
2018-06-30T15:01:30.119Z,42.70
2018-06-30T15:03:58.573Z,42.00
2018-06-30T15:08:55.159Z,42.40
2018-06-30T15:11:23.623Z,41.90
2018-06-30T15:13:52.102Z,43.20
2018-06-30T15:16:20.527Z,41.20
2018-06-30T15:18:49.081Z,41.60
2018-06-30T15:21:17.634Z,42.10
2018-06-30T15:23:46.109Z,39.20
2018-06-30T15:26:14.628Z,40.00
2018-06-30T15:28:43.110Z,40.60
2018-06-30T15:31:14.527Z,40.30
2018-06-30T15:33:43.013Z,40.80
2018-06-30T15:38:39.635Z,41.40
2018-06-30T15:41:08.136Z,39.90
2018-06-30T15:43:36.567Z,40.70
2018-06-30T15:46:05.124Z,40.80
2018-06-30T15:48:33.639Z,40.40
2018-06-30T15:51:02.114Z,41.60
2018-06-30T15:53:30.649Z,41.70
2018-06-30T15:55:59.256Z,41.30
2018-06-30T15:58:27.715Z,42.10
2018-06-30T16:00:56.258Z,42.20
2018-06-30T16:03:24.677Z,41.60
2018-06-30T16:05:53.181Z,41.50
2018-06-30T16:08:21.655Z,42.20
2018-06-30T16:10:50.164Z,42.50
2018-06-30T16:13:18.631Z,42.70
2018-06-30T16:15:47.118Z,41.90
2018-06-30T16:18:15.587Z,41.20
2018-06-30T16:20:44.035Z,41.70
2018-06-30T16:23:12.496Z,41.10
2018-06-30T16:25:40.921Z,42.30
2018-06-30T16:28:09.399Z,41.80
2018-06-30T16:30:37.865Z,41.50
2018-06-30T16:33:06.384Z,42.60
2018-06-30T16:35:34.889Z,42.80
2018-06-30T16:38:03.428Z,42.10
2018-06-30T16:40:31.842Z,43.00
2018-06-30T16:43:00.343Z,42.40
2018-06-30T16:45:28.824Z,42.60
2018-06-30T16:47:57.419Z,42.30
2018-06-30T16:50:25.947Z,42.50
2018-06-30T16:52:54.421Z,42.60
2018-06-30T16:55:22.917Z,42.10
2018-06-30T16:57:51.335Z,43.00
2018-06-30T17:00:19.801Z,42.70
2018-06-30T17:02:48.251Z,43.20
2018-06-30T17:05:16.917Z,41.80
2018-06-30T17:07:45.395Z,42.20
2018-06-30T17:10:13.837Z,42.10
2018-06-30T17:12:42.313Z,43.60
2018-06-30T17:15:11.149Z,44.80
2018-06-30T17:17:39.703Z,43.00
2018-06-30T17:20:08.260Z,42.90
2018-06-30T17:22:36.767Z,42.50
2018-06-30T17:25:05.339Z,43.00
2018-06-30T17:27:33.833Z,42.00
2018-06-30T17:30:02.285Z,42.80
2018-06-30T17:32:30.745Z,42.90
2018-06-30T17:34:59.188Z,44.40
2018-06-30T17:37:27.641Z,44.60
2018-06-30T17:39:56.055Z,43.60
2018-06-30T17:42:24.531Z,43.50
2018-06-30T17:44:52.950Z,42.70
2018-06-30T17:47:24.923Z,44.30
2018-06-30T17:49:53.504Z,43.80
2018-06-30T17:52:22.283Z,43.90
2018-06-30T17:54:50.852Z,44.50
2018-06-30T17:57:19.329Z,45.20
2018-06-30T17:59:47.801Z,44.10
2018-06-30T18:02:16.313Z,44.40
2018-06-30T18:04:44.896Z,44.40
2018-06-30T18:07:13.379Z,45.00
2018-06-30T18:09:41.833Z,45.20
2018-06-30T18:12:10.347Z,44.90
2018-06-30T18:14:38.829Z,45.00
2018-06-30T18:17:07.427Z,45.00
2018-06-30T18:22:04.089Z,45.60
2018-06-30T18:24:32.600Z,45.10
2018-06-30T18:27:01.127Z,45.80
2018-06-30T18:29:29.741Z,45.30
2018-06-30T18:31:58.225Z,46.70
2018-06-30T18:34:26.698Z,46.60
2018-06-30T18:36:55.153Z,46.30
2018-06-30T18:39:23.634Z,46.80
2018-06-30T18:41:52.172Z,46.80
2018-06-30T18:44:20.827Z,47.00
2018-06-30T18:46:49.644Z,47.60
2018-06-30T18:49:18.119Z,47.20
2018-06-30T18:51:46.609Z,47.40
2018-06-30T18:54:15.069Z,47.90
2018-06-30T18:56:43.655Z,48.70
2018-06-30T18:59:12.352Z,49.10
2018-06-30T19:01:40.863Z,49.20
2018-06-30T19:04:09.485Z,49.90
2018-06-30T19:06:38.269Z,50.00
2018-06-30T19:11:35.355Z,50.90
2018-06-30T19:14:04.113Z,50.60
2018-06-30T19:16:32.597Z,50.90
2018-06-30T19:19:01.247Z,52.10
2018-06-30T19:21:30.242Z,51.40
2018-06-30T19:23:59.206Z,52.20
2018-06-30T19:26:27.699Z,52.50
2018-06-30T19:28:56.149Z,52.50
2018-06-30T19:31:24.603Z,52.80
2018-06-30T19:33:53.116Z,52.80
2018-06-30T19:36:21.663Z,52.90
2018-06-30T19:38:50.104Z,53.10
2018-06-30T19:41:18.593Z,53.60
2018-06-30T19:43:47.029Z,54.10
2018-06-30T19:46:15.539Z,54.50
2018-06-30T19:48:44.066Z,54.50
2018-06-30T19:51:12.498Z,54.80
2018-06-30T19:53:41.039Z,54.90
2018-06-30T19:58:37.926Z,55.20
2018-06-30T20:01:06.904Z,55.40
2018-06-30T20:03:35.505Z,56.10
2018-06-30T20:06:03.995Z,56.10
2018-06-30T20:08:32.681Z,56.10
2018-06-30T20:11:01.329Z,57.20
2018-06-30T20:13:30.003Z,57.30
2018-06-30T20:15:58.490Z,57.30
2018-06-30T20:18:26.934Z,57.50
2018-06-30T20:20:56.012Z,58.30
2018-06-30T20:23:24.713Z,58.20
2018-06-30T20:25:53.381Z,57.80
2018-06-30T20:28:21.964Z,58.70
2018-06-30T20:30:50.409Z,59.20
2018-06-30T20:33:19.073Z,59.10
2018-06-30T20:35:47.604Z,60.10
2018-06-30T20:38:16.363Z,59.30
2018-06-30T20:40:45.129Z,59.40
2018-06-30T20:43:13.570Z,60.30
2018-06-30T20:45:42.955Z,60.10
2018-06-30T20:48:11.414Z,60.30
2018-06-30T20:50:40.137Z,60.30
2018-06-30T20:53:08.656Z,60.90
2018-06-30T20:55:37.132Z,60.60
2018-06-30T20:58:06.154Z,61.60
2018-06-30T21:00:34.827Z,61.20
2018-06-30T21:03:03.397Z,61.80
2018-06-30T21:05:31.978Z,61.80
2018-06-30T21:08:00.795Z,62.10
2018-06-30T21:10:29.485Z,62.30
2018-06-30T21:12:58.292Z,62.60
2018-06-30T21:15:26.783Z,63.10
2018-06-30T21:17:55.263Z,63.00
2018-06-30T21:20:23.723Z,63.40
2018-06-30T21:22:52.202Z,63.60
2018-06-30T21:25:20.909Z,63.90
2018-06-30T21:27:49.545Z,64.10
2018-06-30T21:30:18.184Z,64.30
2018-06-30T21:32:46.851Z,64.50
2018-06-30T21:35:15.408Z,64.80
2018-06-30T21:37:43.925Z,65.00
2018-06-30T21:40:12.409Z,64.70
2018-06-30T21:42:40.895Z,65.20
2018-06-30T21:45:09.810Z,65.20
2018-06-30T21:47:38.427Z,66.20
2018-06-30T21:50:07.115Z,66.50
2018-06-30T21:52:35.631Z,67.30
2018-06-30T21:55:04.161Z,67.60
2018-06-30T21:57:32.620Z,67.30
2018-06-30T22:00:01.053Z,68.10
2018-06-30T22:02:29.704Z,67.90
2018-06-30T22:04:58.163Z,68.20
2018-06-30T22:07:26.624Z,67.60
2018-06-30T22:09:55.439Z,68.50
2018-06-30T22:12:23.968Z,68.50
2018-06-30T22:14:52.440Z,68.40
2018-06-30T22:17:20.973Z,69.20
2018-06-30T22:19:49.499Z,69.60
2018-06-30T22:24:46.239Z,69.40
2018-06-30T22:27:14.725Z,69.90
2018-06-30T22:29:43.287Z,70.00
2018-06-30T22:32:11.868Z,69.90
2018-06-30T22:34:40.343Z,70.30
2018-06-30T22:37:09.137Z,70.10
2018-06-30T22:39:48.836Z,70.20
2018-06-30T22:42:17.320Z,70.10
2018-06-30T22:44:46.103Z,70.70
2018-06-30T22:47:14.650Z,70.40
2018-06-30T22:49:43.372Z,70.80
2018-06-30T22:52:11.886Z,71.20
2018-06-30T22:54:40.513Z,71.20
2018-06-30T22:57:09.278Z,71.30
2018-06-30T22:59:37.715Z,71.70
2018-06-30T23:02:06.416Z,71.80
2018-06-30T23:04:34.873Z,71.70
2018-06-30T23:07:03.359Z,71.50
2018-06-30T23:09:31.826Z,71.60
2018-06-30T23:12:00.427Z,72.00
2018-06-30T23:14:28.899Z,72.10
2018-06-30T23:16:57.325Z,72.10
2018-06-30T23:19:25.766Z,71.80
2018-06-30T23:21:54.394Z,72.80
2018-06-30T23:24:22.927Z,72.00
2018-06-30T23:26:51.386Z,72.60
2018-06-30T23:29:19.811Z,71.90
2018-06-30T23:31:48.285Z,72.70
2018-06-30T23:34:16.765Z,72.50
2018-06-30T23:36:45.234Z,72.80
2018-06-30T23:39:13.683Z,72.80
2018-06-30T23:41:42.168Z,73.50
2018-06-30T23:44:10.675Z,73.40
2018-06-30T23:46:39.160Z,73.60
2018-06-30T23:49:07.636Z,73.60
2018-06-30T23:51:36.128Z,73.80
2018-06-30T23:54:04.649Z,73.60
2018-06-30T23:56:33.275Z,73.50
2018-06-30T23:59:01.929Z,75.00
